Auburn, NY

12:08 AM EDT on May 29, 2015 (GMT -0400)
Green Hill Farm | | Change Station
CLOSE
Current Station
Personal Weather Station
Location: Scipio Center, NY
Elevation: 968 ft
Nearby Weather Stations

Elev 968 ft 42.82 °N, 76.59 °W | Updated 3 minutes ago

Clear
Clear
59.1 °F
Feels Like 59.1 °F
N
0.0
Wind Variable Wind from NE
Gusts 0.0 mph

Today
High -- | Low -- °F
--% Chance of Precip.
Yesterday
High -- | Low -- °F
Precip. -- in
5:32 AM 8:35 PM
Waxing Gibbous, 80% visible
Pressure 30.27 in
Visibility 10.0 miles
Clouds Clear
Dew Point 54 °F
Humidity 83%
Rainfall 0.00 in
Snow Depth Not available.
UV 0 out of 12
Pollen 9.00 out of 12
Air Quality Not available.
Flu Activity Widespread
METAR KSYR 290354Z 11004KT 10SM CLR 14/13 A3028 RMK AO2 SLP249 T01440128

More Conditions Fewer Conditions

Pressure 30.27 in
Visibility 10.0 miles
Clouds Clear
Dew Point 54 °F
Humidity 83%
Rainfall 0.00 in
Snow Depth Not available.
UV 0 out of 12
Pollen 9.00 out of 12
Air Quality Not available.
Flu Activity Widespread
METAR KSYR 290354Z 11004KT 10SM CLR 14/13 A3028 RMK AO2 SLP249 T01440128

More Conditions Fewer Conditions

10-Day Weather Forecast

Almanac

Astronomy

May. 29, 2015 Rise Set
Actual Time
Civil Twilight
Nautical Twilight
Astronomical Twilight
Moon
Length of Visible Light
Length of Day
Tomorrow will be .
, % of the Moon is Illuminated

Today's Extremes

State Highs State Lows

Community

WunderPhotos

Upload Photos

1,825,181 photos uploaded!

WunderBlogs® & News

Nearby

Air Quality

  Air Quality AQ Index Pollutant
Not available.

Snow Depth

Station Depth Elevation

Earthquake Activity

City Distance Mag. Time & Date
Minimum magnitude displayed is 2.5.

Coastal Water Temperatures

Place Temperature

Stations

Nearby Weather Stations

Station Location Temp. Windchill Dew Point Humidity Wind Precip. Elev Updated Type